Time;durP1;ratioP1;P1;durP2;ratioP2;P2;SDS_P1;SDS_P2;PMS_P1;PMS_P2;Temp;Humidity;BMP_temperature;BMP_pressure;BME280_temperature;BME280_humidity;BME280_pressure;Samples;Min_cycle;Max_cycle;Signal;HPM_P1;HPM_P2
2021/07/30 00:00:57;;;;;;;;;;;22.70;56.30;;;;;;4984041;28;19914;-59
2021/07/30 00:03:22;;;;;;;;;;;22.70;56.30;;;;;;4984066;28;20402;-58
2021/07/30 00:05:51;;;;;;;;;;;22.70;56.20;;;;;;4984359;28;19921;-57
2021/07/30 00:08:17;;;;;;;;;;;22.70;56.30;;;;;;4983846;28;19914;-59
2021/07/30 00:10:42;;;;;;;;;;;22.70;56.20;;;;;;4983740;28;19920;-59
2021/07/30 00:13:08;;;;;;;;;;;22.70;56.30;;;;;;4983750;28;19918;-58
2021/07/30 00:15:33;;;;;;;;;;;22.70;56.30;;;;;;4983826;28;19975;-59
2021/07/30 00:17:59;;;;;;;;;;;22.60;56.30;;;;;;4983654;28;20334;-58
2021/07/30 00:20:24;;;;;;;;;;;22.60;56.20;;;;;;4982148;28;19914;-59
2021/07/30 00:22:50;;;;;;;;;;;22.60;56.20;;;;;;4983937;28;19968;-58
2021/07/30 00:25:15;;;;;;;;;;;22.70;56.30;;;;;;4983799;28;19918;-59
2021/07/30 00:27:42;;;;;;;;;;;22.70;56.30;;;;;;4983148;28;20048;-59
2021/07/30 00:30:08;;;;;;;;;;;22.60;56.30;;;;;;4983461;28;20692;-57
2021/07/30 00:32:33;;;;;;;;;;;22.60;56.30;;;;;;4981058;28;19913;-59
2021/07/30 00:34:58;;;;;;;;;;;22.60;56.20;;;;;;4983527;28;20580;-60
2021/07/30 00:37:24;;;;;;;;;;;22.60;56.10;;;;;;4983706;28;19921;-59
2021/07/30 00:39:49;;;;;;;;;;;22.60;56.10;;;;;;4983142;28;19918;-58
2021/07/30 00:42:15;;;;;;;;;;;22.60;56.10;;;;;;4983148;28;20605;-58
2021/07/30 00:44:40;;;;;;;;;;;22.60;56.10;;;;;;4983612;28;19921;-59
2021/07/30 00:47:06;;;;;;;;;;;22.60;56.10;;;;;;4982978;28;19922;-56
2021/07/30 00:49:31;;;;;;;;;;;22.60;56.10;;;;;;4982995;28;20405;-59
2021/07/30 00:51:57;;;;;;;;;;;22.60;56.00;;;;;;4983269;28;19991;-59
2021/07/30 00:54:24;;;;;;;;;;;22.60;56.00;;;;;;4983077;28;20017;-58
2021/07/30 00:56:50;;;;;;;;;;;22.60;55.90;;;;;;4983335;28;19955;-59
2021/07/30 00:59:16;;;;;;;;;;;22.60;56.00;;;;;;4980989;28;20741;-57
2021/07/30 01:01:41;;;;;;;;;;;22.60;55.90;;;;;;4982977;28;20674;-58
2021/07/30 01:04:07;;;;;;;;;;;22.60;56.00;;;;;;4981743;28;20052;-58
2021/07/30 01:06:32;;;;;;;;;;;22.60;55.80;;;;;;4982663;28;19914;-58
2021/07/30 01:08:58;;;;;;;;;;;22.50;55.80;;;;;;4982663;28;19980;-58
2021/07/30 01:11:24;;;;;;;;;;;22.60;55.80;;;;;;4982903;28;19918;-59
2021/07/30 01:13:49;;;;;;;;;;;22.50;55.70;;;;;;4981883;28;19972;-58
2021/07/30 01:16:15;;;;;;;;;;;22.50;55.80;;;;;;4982962;28;19952;-59
2021/07/30 01:18:40;;;;;;;;;;;22.50;55.80;;;;;;4982627;28;20365;-59
2021/07/30 01:21:14;;;;;;;;;;;22.50;56.00;;;;;;4982852;28;19914;-57
2021/07/30 01:23:40;;;;;;;;;;;22.50;56.10;;;;;;4982546;28;19925;-59
2021/07/30 01:26:05;;;;;;;;;;;22.60;56.10;;;;;;4981090;28;20602;-58
2021/07/30 01:28:31;;;;;;;;;;;22.50;56.00;;;;;;4982820;28;19941;-58
2021/07/30 01:30:57;;;;;;;;;;;22.50;56.10;;;;;;4983043;28;20406;-59
2021/07/30 01:33:22;;;;;;;;;;;22.50;56.10;;;;;;4982697;28;20294;-59
2021/07/30 01:35:48;;;;;;;;;;;22.50;56.10;;;;;;4983349;28;19922;-58
2021/07/30 01:38:13;;;;;;;;;;;22.50;56.20;;;;;;4982266;28;19940;-58
2021/07/30 01:40:39;;;;;;;;;;;22.50;56.10;;;;;;4982030;28;19956;-59
2021/07/30 01:43:04;;;;;;;;;;;22.50;56.10;;;;;;4983009;28;19917;-59
2021/07/30 01:45:30;;;;;;;;;;;22.50;56.10;;;;;;4982657;28;19918;-58
2021/07/30 01:47:55;;;;;;;;;;;22.50;56.10;;;;;;4982385;28;19944;-58
2021/07/30 01:50:20;;;;;;;;;;;22.50;56.10;;;;;;4982445;28;19914;-60
2021/07/30 01:52:46;;;;;;;;;;;22.50;56.00;;;;;;4984745;28;19922;-59
2021/07/30 01:55:11;;;;;;;;;;;22.50;56.00;;;;;;4986088;28;20301;-58
2021/07/30 01:57:37;;;;;;;;;;;22.50;56.10;;;;;;4985981;28;19914;-57
2021/07/30 02:00:03;;;;;;;;;;;22.50;56.10;;;;;;4985960;28;20413;-58
2021/07/30 02:02:33;;;;;;;;;;;22.50;56.10;;;;;;4984804;28;20001;-58
2021/07/30 02:04:59;;;;;;;;;;;22.50;56.10;;;;;;4986188;28;20398;-58
2021/07/30 02:07:24;;;;;;;;;;;22.40;56.00;;;;;;4986370;28;20334;-59
2021/07/30 02:09:49;;;;;;;;;;;22.50;56.20;;;;;;4986046;28;19918;-59
2021/07/30 02:12:15;;;;;;;;;;;22.40;56.20;;;;;;4985758;28;20526;-59
2021/07/30 02:14:40;;;;;;;;;;;22.40;56.20;;;;;;4985828;28;19922;-61
2021/07/30 02:17:06;;;;;;;;;;;22.40;56.10;;;;;;4986092;28;20314;-61
2021/07/30 02:19:31;;;;;;;;;;;22.40;56.20;;;;;;4985430;28;19964;-60
2021/07/30 02:21:57;;;;;;;;;;;22.40;56.20;;;;;;4985814;28;19948;-58
2021/07/30 02:24:24;;;;;;;;;;;22.40;56.30;;;;;;4984008;28;20393;-60
2021/07/30 02:26:49;;;;;;;;;;;22.40;56.30;;;;;;4985777;28;20004;-59
2021/07/30 02:29:15;;;;;;;;;;;22.40;56.30;;;;;;4985124;28;19965;-59
2021/07/30 02:31:40;;;;;;;;;;;22.40;56.20;;;;;;4983798;28;19922;-59
2021/07/30 02:34:05;;;;;;;;;;;22.40;56.20;;;;;;4985782;28;19965;-59
2021/07/30 02:36:31;;;;;;;;;;;22.40;56.30;;;;;;4985650;28;19995;-58
2021/07/30 02:38:56;;;;;;;;;;;22.30;56.20;;;;;;4985262;28;20395;-59
2021/07/30 02:41:22;;;;;;;;;;;22.40;56.30;;;;;;4985569;28;19917;-59
2021/07/30 02:43:47;;;;;;;;;;;22.30;56.20;;;;;;4985728;28;19937;-57
2021/07/30 02:46:16;;;;;;;;;;;22.30;56.20;;;;;;4985372;28;19941;-56
2021/07/30 02:48:41;;;;;;;;;;;22.30;56.20;;;;;;4984791;28;19922;-58
2021/07/30 02:51:07;;;;;;;;;;;22.30;56.20;;;;;;4984964;28;19924;-59
2021/07/30 02:53:32;;;;;;;;;;;22.30;56.30;;;;;;4984906;28;20330;-59
2021/07/30 02:55:58;;;;;;;;;;;22.30;56.20;;;;;;4984915;28;19918;-58
2021/07/30 02:58:23;;;;;;;;;;;22.30;56.10;;;;;;4984853;28;19914;-59
2021/07/30 03:00:49;;;;;;;;;;;22.30;56.20;;;;;;4985399;28;20382;-59
2021/07/30 03:03:14;;;;;;;;;;;22.30;56.20;;;;;;4984707;28;19983;-59
2021/07/30 03:05:39;;;;;;;;;;;22.30;56.30;;;;;;4984767;28;19969;-58
2021/07/30 03:08:05;;;;;;;;;;;22.30;56.30;;;;;;4984380;28;19914;-59
2021/07/30 03:10:30;;;;;;;;;;;22.30;56.30;;;;;;4984705;28;20275;-58
2021/07/30 03:12:56;;;;;;;;;;;22.30;56.30;;;;;;4984959;28;19964;-59
2021/07/30 03:15:21;;;;;;;;;;;22.30;56.40;;;;;;4984652;28;19949;-59
2021/07/30 03:17:47;;;;;;;;;;;22.30;56.40;;;;;;4984939;28;19918;-58
2021/07/30 03:20:12;;;;;;;;;;;22.20;56.30;;;;;;4984452;28;20349;-58
2021/07/30 03:22:38;;;;;;;;;;;22.20;56.30;;;;;;4984784;28;19956;-59
2021/07/30 03:25:03;;;;;;;;;;;22.20;56.20;;;;;;4984560;28;19922;-58
2021/07/30 03:27:29;;;;;;;;;;;22.20;56.30;;;;;;4984890;28;19949;-59
2021/07/30 03:29:54;;;;;;;;;;;22.20;56.40;;;;;;4984142;28;20449;-59
2021/07/30 03:32:20;;;;;;;;;;;22.20;56.30;;;;;;4984853;28;19968;-58
2021/07/30 03:34:48;;;;;;;;;;;22.20;56.40;;;;;;4984264;28;19922;-57
2021/07/30 03:37:14;;;;;;;;;;;22.20;56.30;;;;;;4984064;28;19918;-59
2021/07/30 03:39:39;;;;;;;;;;;22.20;56.30;;;;;;4983802;28;20325;-58
2021/07/30 03:42:05;;;;;;;;;;;22.20;56.40;;;;;;4993116;28;19960;-56
2021/07/30 03:44:30;;;;;;;;;;;22.20;56.50;;;;;;5003356;28;19922;-59
2021/07/30 03:46:56;;;;;;;;;;;22.20;56.50;;;;;;5001906;28;20345;-58
2021/07/30 03:49:21;;;;;;;;;;;22.20;56.40;;;;;;5002561;28;20329;-58
2021/07/30 03:51:47;;;;;;;;;;;22.20;56.40;;;;;;5004150;28;19919;-58
2021/07/30 03:54:12;;;;;;;;;;;22.20;56.50;;;;;;5003714;28;19940;-59
2021/07/30 03:56:39;;;;;;;;;;;22.10;56.40;;;;;;5003734;28;19921;-58
2021/07/30 03:59:05;;;;;;;;;;;22.20;56.50;;;;;;5000317;28;19925;-58
2021/07/30 04:01:30;;;;;;;;;;;22.20;56.60;;;;;;5001498;28;19979;-58
2021/07/30 04:03:56;;;;;;;;;;;22.20;56.50;;;;;;5002919;28;19923;-57
2021/07/30 04:06:21;;;;;;;;;;;22.10;56.60;;;;;;5004224;28;19967;-60
2021/07/30 04:08:46;;;;;;;;;;;22.10;56.50;;;;;;5001317;28;20467;-61
2021/07/30 04:11:12;;;;;;;;;;;22.10;56.50;;;;;;5005241;28;19917;-61
2021/07/30 04:13:37;;;;;;;;;;;22.10;56.60;;;;;;5001343;28;20325;-61
2021/07/30 04:16:03;;;;;;;;;;;22.10;56.60;;;;;;5007956;28;19921;-61
2021/07/30 04:18:29;;;;;;;;;;;22.10;56.70;;;;;;5000003;28;20008;-62
2021/07/30 04:20:54;;;;;;;;;;;22.10;56.60;;;;;;5001845;28;19936;-62
2021/07/30 04:23:19;;;;;;;;;;;22.10;56.60;;;;;;5000092;28;19917;-59
2021/07/30 04:25:45;;;;;;;;;;;22.10;56.70;;;;;;5010116;28;20684;-59
2021/07/30 04:28:10;;;;;;;;;;;22.10;56.70;;;;;;4998310;28;19928;-58
2021/07/30 04:30:36;;;;;;;;;;;22.10;56.70;;;;;;5012237;28;19920;-57
2021/07/30 04:33:01;;;;;;;;;;;22.10;56.60;;;;;;4995056;28;19917;-60
2021/07/30 04:35:27;;;;;;;;;;;22.10;56.80;;;;;;5031460;22;19925;-58
2021/07/30 04:37:54;;;;;;;;;;;22.10;56.80;;;;;;5009127;28;19984;-58
2021/07/30 04:40:20;;;;;;;;;;;22.00;56.80;;;;;;5011091;28;19913;-56
2021/07/30 04:42:45;;;;;;;;;;;22.00;56.70;;;;;;5023807;28;19917;-57
2021/07/30 04:45:11;;;;;;;;;;;22.10;56.90;;;;;;5024042;28;19918;-62
2021/07/30 04:47:36;;;;;;;;;;;22.10;57.00;;;;;;5010730;28;20221;-56
2021/07/30 04:50:02;;;;;;;;;;;22.10;57.10;;;;;;5005600;28;19918;-58
2021/07/30 04:52:27;;;;;;;;;;;22.10;57.10;;;;;;5005445;28;19925;-60
2021/07/30 04:54:53;;;;;;;;;;;22.10;57.30;;;;;;5009509;28;20050;-58
2021/07/30 04:57:18;;;;;;;;;;;22.10;57.30;;;;;;5024994;28;19917;-58
2021/07/30 04:59:44;;;;;;;;;;;22.10;57.20;;;;;;5024934;28;19917;-61
2021/07/30 05:02:09;;;;;;;;;;;22.10;57.20;;;;;;5022810;28;19918;-60
2021/07/30 05:04:35;;;;;;;;;;;22.10;57.30;;;;;;5020929;28;19921;-58
2021/07/30 05:07:01;;;;;;;;;;;22.10;57.30;;;;;;5023420;28;19924;-60
2021/07/30 05:09:26;;;;;;;;;;;22.10;57.40;;;;;;5021555;28;20077;-61
2021/07/30 05:11:52;;;;;;;;;;;22.10;57.40;;;;;;5022878;28;19979;-61
2021/07/30 05:14:17;;;;;;;;;;;22.10;57.40;;;;;;5024949;28;19914;-61
2021/07/30 05:16:42;;;;;;;;;;;22.10;57.50;;;;;;5023462;28;20352;-61
2021/07/30 05:19:08;;;;;;;;;;;22.10;57.50;;;;;;5023231;28;19913;-59
2021/07/30 05:21:33;;;;;;;;;;;22.10;57.50;;;;;;5023513;28;19913;-58
2021/07/30 05:23:59;;;;;;;;;;;22.10;57.40;;;;;;5023210;28;19921;-59
2021/07/30 05:26:24;;;;;;;;;;;22.10;57.40;;;;;;5024611;28;19917;-60
2021/07/30 05:28:50;;;;;;;;;;;22.10;57.50;;;;;;5027214;28;19914;-60
2021/07/30 05:31:16;;;;;;;;;;;22.10;57.50;;;;;;5027112;28;21134;-59
2021/07/30 05:33:42;;;;;;;;;;;22.10;57.60;;;;;;5027871;28;19917;-56
2021/07/30 05:36:07;;;;;;;;;;;22.10;57.50;;;;;;5027157;28;19921;-60
2021/07/30 05:38:33;;;;;;;;;;;22.10;57.50;;;;;;5027658;28;20470;-60
2021/07/30 05:40:58;;;;;;;;;;;22.10;57.40;;;;;;5026894;28;19917;-59
2021/07/30 05:43:23;;;;;;;;;;;22.10;57.30;;;;;;5026475;28;19924;-58
2021/07/30 05:45:49;;;;;;;;;;;22.10;57.30;;;;;;5026554;28;19922;-58
2021/07/30 05:48:14;;;;;;;;;;;22.10;57.30;;;;;;5025506;28;20325;-60
2021/07/30 05:50:40;;;;;;;;;;;22.10;57.10;;;;;;5025767;28;19921;-57
2021/07/30 05:53:05;;;;;;;;;;;22.10;57.20;;;;;;5025764;28;19917;-59
2021/07/30 05:55:31;;;;;;;;;;;22.10;57.00;;;;;;5025926;28;19924;-59
2021/07/30 05:57:58;;;;;;;;;;;22.10;57.00;;;;;;5025493;28;19951;-56
2021/07/30 06:00:23;;;;;;;;;;;22.10;57.00;;;;;;5025746;28;19949;-57
2021/07/30 06:02:50;;;;;;;;;;;22.10;57.10;;;;;;5026147;28;20022;-59
2021/07/30 06:05:15;;;;;;;;;;;22.10;57.00;;;;;;5025412;28;20477;-60
2021/07/30 06:07:41;;;;;;;;;;;22.10;56.80;;;;;;5025206;28;20012;-60
2021/07/30 06:10:06;;;;;;;;;;;22.10;56.80;;;;;;5025362;28;19948;-59
2021/07/30 06:12:32;;;;;;;;;;;22.10;56.90;;;;;;5025632;28;19952;-57
2021/07/30 06:14:57;;;;;;;;;;;22.10;57.00;;;;;;5025531;28;19913;-58
2021/07/30 06:17:22;;;;;;;;;;;22.10;56.60;;;;;;5025107;28;19917;-60
2021/07/30 06:19:48;;;;;;;;;;;22.10;56.70;;;;;;5025213;28;19925;-57
2021/07/30 06:22:13;;;;;;;;;;;22.20;56.70;;;;;;5025412;28;20335;-58
2021/07/30 06:24:39;;;;;;;;;;;22.10;56.70;;;;;;5025270;28;19921;-58
2021/07/30 06:27:05;;;;;;;;;;;22.20;56.70;;;;;;5025489;28;20413;-58
2021/07/30 06:29:30;;;;;;;;;;;22.20;56.80;;;;;;5024807;28;19913;-60
2021/07/30 06:31:56;;;;;;;;;;;22.20;56.60;;;;;;5014334;28;19925;-59
2021/07/30 06:34:21;;;;;;;;;;;22.20;56.60;;;;;;5014690;28;20004;-58
2021/07/30 06:36:46;;;;;;;;;;;22.20;56.60;;;;;;5009451;28;19917;-59
2021/07/30 06:39:12;;;;;;;;;;;22.20;56.90;;;;;;5023556;28;19920;-59
2021/07/30 06:41:37;;;;;;;;;;;22.20;56.80;;;;;;5025293;28;19913;-57
2021/07/30 06:44:03;;;;;;;;;;;22.20;56.70;;;;;;5024774;28;20304;-58
2021/07/30 06:46:28;;;;;;;;;;;22.20;56.80;;;;;;5024747;28;19917;-60
2021/07/30 06:48:54;;;;;;;;;;;22.20;56.70;;;;;;5023087;28;19913;-55
2021/07/30 06:51:19;;;;;;;;;;;22.20;56.60;;;;;;5025225;28;19939;-58
2021/07/30 06:53:45;;;;;;;;;;;22.20;56.60;;;;;;5024289;28;20454;-59
2021/07/30 06:56:10;;;;;;;;;;;22.20;56.70;;;;;;5024713;28;19917;-57
2021/07/30 06:58:36;;;;;;;;;;;22.20;56.70;;;;;;5024511;28;20306;-58
2021/07/30 07:01:05;;;;;;;;;;;22.20;56.70;;;;;;5023294;28;19920;-59
2021/07/30 07:03:30;;;;;;;;;;;22.20;56.60;;;;;;5024601;28;19917;-58
2021/07/30 07:05:56;;;;;;;;;;;22.20;56.70;;;;;;5024442;28;20382;-59
2021/07/30 07:08:21;;;;;;;;;;;22.20;56.60;;;;;;5022750;28;20014;-56
2021/07/30 07:10:46;;;;;;;;;;;22.20;56.70;;;;;;5024271;28;19913;-58
2021/07/30 07:13:12;;;;;;;;;;;22.20;56.80;;;;;;5024530;28;19913;-58
2021/07/30 07:15:44;;;;;;;;;;;22.20;56.90;;;;;;5024478;28;19921;-59
2021/07/30 07:18:09;;;;;;;;;;;22.20;57.00;;;;;;5024046;28;19913;-59
2021/07/30 07:20:35;;;;;;;;;;;22.20;57.10;;;;;;5024027;28;19994;-58
2021/07/30 07:23:00;;;;;;;;;;;22.10;57.10;;;;;;5024261;28;20298;-59
2021/07/30 07:25:26;;;;;;;;;;;22.20;57.20;;;;;;5023976;28;19924;-57
2021/07/30 07:27:51;;;;;;;;;;;22.20;57.10;;;;;;5022750;28;19920;-56
2021/07/30 07:30:17;;;;;;;;;;;22.10;57.10;;;;;;5024021;28;19917;-59
2021/07/30 07:32:42;;;;;;;;;;;22.20;57.40;;;;;;5024092;28;19952;-56
2021/07/30 07:35:08;;;;;;;;;;;22.20;57.60;;;;;;5023656;28;19925;-58
2021/07/30 07:37:33;;;;;;;;;;;22.10;57.50;;;;;;5023448;28;20574;-58
2021/07/30 07:39:59;;;;;;;;;;;22.10;57.50;;;;;;5021928;28;19917;-59
2021/07/30 07:42:24;;;;;;;;;;;22.20;57.50;;;;;;5023848;28;19921;-60
2021/07/30 07:44:50;;;;;;;;;;;22.10;57.50;;;;;;5023626;28;20286;-59
2021/07/30 07:47:15;;;;;;;;;;;22.20;57.40;;;;;;5021791;28;19921;-59
2021/07/30 07:49:41;;;;;;;;;;;22.10;57.30;;;;;;5022029;28;20441;-59
2021/07/30 07:52:06;;;;;;;;;;;22.20;57.30;;;;;;5023239;28;19917;-57
2021/07/30 07:54:32;;;;;;;;;;;22.20;57.50;;;;;;5023543;28;19913;-59
2021/07/30 07:57:01;;;;;;;;;;;22.20;57.60;;;;;;5022080;28;19921;-58
2021/07/30 07:59:27;;;;;;;;;;;22.20;57.50;;;;;;5018121;28;19917;-58
2021/07/30 08:01:53;;;;;;;;;;;22.10;57.30;;;;;;5021673;28;19917;-58
2021/07/30 08:04:18;;;;;;;;;;;22.20;57.30;;;;;;5020236;28;19970;-59
2021/07/30 08:06:43;;;;;;;;;;;22.20;57.40;;;;;;5020775;28;20472;-57
2021/07/30 08:09:09;;;;;;;;;;;22.20;57.30;;;;;;5022542;28;19971;-57
2021/07/30 08:11:34;;;;;;;;;;;22.20;57.30;;;;;;5022357;28;19917;-59
2021/07/30 08:14:00;;;;;;;;;;;22.20;57.30;;;;;;5023293;28;20000;-57
2021/07/30 08:16:26;;;;;;;;;;;22.20;57.40;;;;;;5021790;28;19913;-57
2021/07/30 08:18:51;;;;;;;;;;;22.20;57.40;;;;;;5023203;28;19917;-58
2021/07/30 08:21:17;;;;;;;;;;;22.20;57.50;;;;;;5023303;28;19940;-58
2021/07/30 08:23:42;;;;;;;;;;;22.20;57.60;;;;;;5023424;28;19975;-58
2021/07/30 08:26:08;;;;;;;;;;;22.20;57.60;;;;;;5021835;28;19913;-60
2021/07/30 08:28:33;;;;;;;;;;;22.20;57.80;;;;;;5021997;28;20550;-57
2021/07/30 08:30:59;;;;;;;;;;;22.20;57.80;;;;;;5022561;28;19921;-56
2021/07/30 08:33:24;;;;;;;;;;;22.20;57.90;;;;;;5021317;28;19996;-58
2021/07/30 08:35:50;;;;;;;;;;;22.20;57.80;;;;;;5020354;28;19932;-59
2021/07/30 08:38:15;;;;;;;;;;;22.20;57.70;;;;;;5022378;28;20052;-58
2021/07/30 08:40:41;;;;;;;;;;;22.10;57.70;;;;;;5022008;28;19924;-57
2021/07/30 08:43:06;;;;;;;;;;;22.20;57.70;;;;;;5020916;28;19913;-57
2021/07/30 08:45:31;;;;;;;;;;;22.20;57.70;;;;;;5020931;28;19975;-59
2021/07/30 08:48:00;;;;;;;;;;;22.20;57.80;;;;;;5022349;28;20293;-56
2021/07/30 08:50:25;;;;;;;;;;;22.20;57.80;;;;;;5023009;28;20285;-58
2021/07/30 08:52:55;;;;;;;;;;;22.20;57.90;;;;;;5022426;28;20487;-59
2021/07/30 08:55:26;;;;;;;;;;;22.20;57.90;;;;;;5023092;28;20004;-60
2021/07/30 08:57:52;;;;;;;;;;;22.20;57.90;;;;;;5021008;28;20952;-59
2021/07/30 09:00:18;;;;;;;;;;;22.20;57.90;;;;;;5023323;28;19918;-59
2021/07/30 09:02:44;;;;;;;;;;;22.20;57.80;;;;;;5021279;28;19917;-58
2021/07/30 09:05:28;;;;;;;;;;;22.20;57.80;;;;;;5022690;28;19994;-59
2021/07/30 09:07:53;;;;;;;;;;;22.20;57.80;;;;;;5022629;28;19917;-59
2021/07/30 09:10:25;;;;;;;;;;;22.20;57.80;;;;;;5022773;28;19959;-59
2021/07/30 09:12:51;;;;;;;;;;;22.20;57.90;;;;;;5022542;28;20012;-59
2021/07/30 09:15:22;;;;;;;;;;;22.20;57.90;;;;;;5022412;28;19913;-57
2021/07/30 09:17:48;;;;;;;;;;;22.20;58.00;;;;;;5022221;28;19952;-59
2021/07/30 09:20:13;;;;;;;;;;;22.20;57.90;;;;;;5020820;28;19921;-56
2021/07/30 09:22:48;;;;;;;;;;;22.20;57.90;;;;;;5021165;28;19944;-57
2021/07/30 09:25:14;;;;;;;;;;;22.20;57.90;;;;;;5022220;28;20127;-56
2021/07/30 09:27:40;;;;;;;;;;;22.20;57.90;;;;;;5020385;28;20473;-56
2021/07/30 09:30:12;;;;;;;;;;;22.20;57.90;;;;;;5020728;28;20382;-59
2021/07/30 09:32:38;;;;;;;;;;;22.20;57.90;;;;;;5022170;28;19940;-56
2021/07/30 09:35:03;;;;;;;;;;;22.20;57.90;;;;;;5004145;28;19929;-59
2021/07/30 09:37:29;;;;;;;;;;;22.20;58.60;;;;;;5022652;28;20487;-58
2021/07/30 09:39:54;;;;;;;;;;;22.20;57.80;;;;;;5022200;28;19944;-54
2021/07/30 09:42:20;;;;;;;;;;;22.20;57.90;;;;;;5021930;28;20478;-60
2021/07/30 09:44:49;;;;;;;;;;;22.20;57.80;;;;;;5021921;28;24700;-57
2021/07/30 09:47:15;;;;;;;;;;;22.20;57.80;;;;;;5022270;28;19921;-57
2021/07/30 09:49:47;;;;;;;;;;;22.20;57.90;;;;;;5021793;28;20461;-58
2021/07/30 09:52:16;;;;;;;;;;;22.20;57.80;;;;;;5022195;28;19924;-59
2021/07/30 09:54:46;;;;;;;;;;;22.20;57.80;;;;;;5021248;28;19952;-59
2021/07/30 09:57:11;;;;;;;;;;;22.20;57.80;;;;;;5020604;28;19936;-57
2021/07/30 09:59:39;;;;;;;;;;;22.20;57.90;;;;;;5017054;28;19913;-57
2021/07/30 10:02:05;;;;;;;;;;;22.20;57.90;;;;;;5020912;28;19924;-59
2021/07/30 10:04:31;;;;;;;;;;;22.30;58.00;;;;;;4982204;28;19921;-60
2021/07/30 10:06:57;;;;;;;;;;;22.20;57.90;;;;;;4999263;28;19988;-60
2021/07/30 10:09:22;;;;;;;;;;;22.20;57.90;;;;;;4974855;28;19918;-58
2021/07/30 10:11:48;;;;;;;;;;;22.30;58.00;;;;;;5005270;28;19929;-60
2021/07/30 10:14:13;;;;;;;;;;;22.20;57.90;;;;;;5003592;28;20327;-58
2021/07/30 10:16:46;;;;;;;;;;;22.20;57.90;;;;;;5005992;28;19918;-58
2021/07/30 10:19:12;;;;;;;;;;;22.30;58.00;;;;;;5004048;28;19945;-58
2021/07/30 10:21:37;;;;;;;;;;;22.20;57.90;;;;;;5004198;28;20191;-58
2021/07/30 10:24:03;;;;;;;;;;;22.30;57.90;;;;;;5004053;28;19918;-59
2021/07/30 10:26:29;;;;;;;;;;;22.30;57.90;;;;;;5003998;28;19920;-59
2021/07/30 10:28:58;;;;;;;;;;;22.30;57.90;;;;;;5003666;28;19918;-57
2021/07/30 10:31:23;;;;;;;;;;;22.30;58.00;;;;;;5003888;28;20002;-59
2021/07/30 10:33:49;;;;;;;;;;;22.30;58.10;;;;;;5004345;28;19917;-59
2021/07/30 10:36:41;;;;;;;;;;;22.30;58.10;;;;;;5002710;23;19930;-61
2021/07/30 10:39:11;;;;;;;;;;;22.30;58.00;;;;;;4981910;28;20013;-61
2021/07/30 10:41:38;;;;;;;;;;;22.30;58.00;;;;;;4980481;28;19914;-61
2021/07/30 10:44:04;;;;;;;;;;;22.30;58.10;;;;;;4980383;28;20056;-61
2021/07/30 10:46:30;;;;;;;;;;;22.30;58.00;;;;;;4978734;28;19941;-60
2021/07/30 10:48:55;;;;;;;;;;;22.30;58.60;;;;;;4979894;28;20461;-60
2021/07/30 10:51:21;;;;;;;;;;;22.30;57.90;;;;;;4982280;28;19922;-60
2021/07/30 10:53:47;;;;;;;;;;;22.30;58.00;;;;;;4982841;28;19940;-60
2021/07/30 10:56:22;;;;;;;;;;;22.30;58.00;;;;;;4983506;28;19921;-60
2021/07/30 10:58:52;;;;;;;;;;;22.30;57.90;;;;;;4982638;28;19917;-60
2021/07/30 11:01:19;;;;;;;;;;;22.30;58.00;;;;;;4983509;28;19921;-60
2021/07/30 11:03:53;;;;;;;;;;;22.30;57.90;;;;;;4983022;28;19948;-58
2021/07/30 11:06:24;;;;;;;;;;;22.30;57.90;;;;;;4983055;28;19918;-61
2021/07/30 11:11:36;;;;;;;;;;;22.30;57.90;;;;;;4999375;28;19944;-57
2021/07/30 11:14:01;;;;;;;;;;;22.30;57.80;;;;;;5003028;28;20012;-59
2021/07/30 11:16:27;;;;;;;;;;;22.30;57.90;;;;;;5001782;28;20008;-60
2021/07/30 11:18:52;;;;;;;;;;;22.30;57.90;;;;;;5003107;28;19933;-60
2021/07/30 11:21:18;;;;;;;;;;;22.40;57.90;;;;;;5002381;28;19949;-60
2021/07/30 11:23:43;;;;;;;;;;;22.30;57.90;;;;;;5002242;28;20027;-61
2021/07/30 11:26:09;;;;;;;;;;;22.30;57.90;;;;;;5002552;28;19918;-59
2021/07/30 11:28:34;;;;;;;;;;;22.30;57.90;;;;;;5001506;28;20001;-59
2021/07/30 11:31:00;;;;;;;;;;;22.30;57.90;;;;;;5001914;28;19913;-60
2021/07/30 11:33:25;;;;;;;;;;;22.30;57.80;;;;;;5000986;28;20648;-59
2021/07/30 11:35:51;;;;;;;;;;;22.40;57.80;;;;;;5000724;28;20052;-58
2021/07/30 11:38:16;;;;;;;;;;;22.40;57.80;;;;;;5002246;28;19957;-60
2021/07/30 11:40:42;;;;;;;;;;;22.40;57.80;;;;;;4999998;28;19920;-59
2021/07/30 11:43:07;;;;;;;;;;;22.40;57.90;;;;;;5002785;28;20680;-57
2021/07/30 11:45:33;;;;;;;;;;;22.40;57.80;;;;;;5003320;28;19922;-60
2021/07/30 11:47:58;;;;;;;;;;;22.40;57.90;;;;;;5002927;28;20365;-60
2021/07/30 11:50:26;;;;;;;;;;;22.40;57.80;;;;;;5003419;28;19914;-61
2021/07/30 11:52:51;;;;;;;;;;;22.40;57.90;;;;;;5003545;28;19913;-60
2021/07/30 11:55:17;;;;;;;;;;;22.40;57.80;;;;;;5000930;28;19917;-59
2021/07/30 11:57:52;;;;;;;;;;;22.40;57.80;;;;;;4999393;28;20357;-61
2021/07/30 12:00:24;;;;;;;;;;;22.40;57.90;;;;;;5002846;28;20378;-60
2021/07/30 12:02:50;;;;;;;;;;;22.40;57.80;;;;;;5002837;28;19913;-60
2021/07/30 12:05:15;;;;;;;;;;;22.40;57.70;;;;;;5002833;28;19924;-61
2021/07/30 12:07:41;;;;;;;;;;;22.40;57.70;;;;;;5000096;28;20474;-60
2021/07/30 12:10:07;;;;;;;;;;;22.40;57.70;;;;;;5002819;28;19956;-60
2021/07/30 12:12:33;;;;;;;;;;;22.40;57.70;;;;;;5000925;28;19928;-61
2021/07/30 12:14:59;;;;;;;;;;;22.40;57.70;;;;;;5002646;28;19917;-61
2021/07/30 12:17:26;;;;;;;;;;;22.40;57.60;;;;;;5002208;28;19964;-60
2021/07/30 12:19:55;;;;;;;;;;;22.40;57.70;;;;;;5001096;28;20593;-61
2021/07/30 12:22:30;;;;;;;;;;;22.40;57.70;;;;;;5002229;28;19917;-57
2021/07/30 12:24:55;;;;;;;;;;;22.40;57.60;;;;;;5000547;28;20009;-60
2021/07/30 12:27:21;;;;;;;;;;;22.40;57.50;;;;;;5001683;28;19913;-60
2021/07/30 12:29:47;;;;;;;;;;;22.40;58.20;;;;;;5001121;28;19913;-59
2021/07/30 12:32:19;;;;;;;;;;;22.40;57.50;;;;;;5002200;28;19960;-60
2021/07/30 12:34:58;;;;;;;;;;;22.40;57.50;;;;;;5001885;28;20086;-60
2021/07/30 12:37:23;;;;;;;;;;;22.40;57.50;;;;;;5001240;28;20024;-59
2021/07/30 12:39:50;;;;;;;;;;;22.50;57.50;;;;;;5001893;28;19955;-59
2021/07/30 12:42:16;;;;;;;;;;;22.50;57.60;;;;;;5001599;28;20098;-60
2021/07/30 12:44:41;;;;;;;;;;;22.50;57.50;;;;;;4999299;28;20536;-60
2021/07/30 12:47:10;;;;;;;;;;;22.50;57.40;;;;;;5001789;28;20385;-59
2021/07/30 12:49:38;;;;;;;;;;;22.50;57.60;;;;;;5000868;28;19921;-59
2021/07/30 12:52:12;;;;;;;;;;;22.50;57.50;;;;;;5001865;28;19913;-59
2021/07/30 12:54:38;;;;;;;;;;;22.50;57.50;;;;;;5001946;28;20167;-60
2021/07/30 12:57:04;;;;;;;;;;;22.50;57.60;;;;;;5002315;28;20353;-59
2021/07/30 12:59:48;;;;;;;;;;;22.50;57.50;;;;;;5001465;28;19936;-59
2021/07/30 13:02:13;;;;;;;;;;;22.50;57.50;;;;;;5001749;28;19992;-60
2021/07/30 13:04:39;;;;;;;;;;;22.50;57.50;;;;;;5002442;28;19922;-60
2021/07/30 13:07:05;;;;;;;;;;;22.50;57.60;;;;;;5001971;28;20456;-60
2021/07/30 13:09:30;;;;;;;;;;;22.50;57.50;;;;;;5001989;28;19952;-61
2021/07/30 13:11:55;;;;;;;;;;;22.50;57.50;;;;;;5001399;28;19922;-59
2021/07/30 13:14:21;;;;;;;;;;;22.50;57.40;;;;;;5001273;28;20529;-57
2021/07/30 13:16:46;;;;;;;;;;;22.50;57.40;;;;;;5001297;28;19913;-60
2021/07/30 13:19:12;;;;;;;;;;;22.50;57.50;;;;;;5000895;28;19976;-61
2021/07/30 13:21:37;;;;;;;;;;;22.50;57.50;;;;;;5000745;28;19918;-60
2021/07/30 13:24:03;;;;;;;;;;;22.50;57.50;;;;;;5001983;28;19921;-61
2021/07/30 13:26:28;;;;;;;;;;;22.50;57.60;;;;;;5001121;28;19985;-59
2021/07/30 13:28:54;;;;;;;;;;;22.50;57.60;;;;;;5000956;28;20302;-60
2021/07/30 13:31:19;;;;;;;;;;;22.50;57.60;;;;;;5001346;28;19914;-61
2021/07/30 13:33:45;;;;;;;;;;;22.50;57.60;;;;;;5001801;28;19929;-61
2021/07/30 13:36:10;;;;;;;;;;;22.50;57.70;;;;;;5000974;28;19926;-60
2021/07/30 13:38:35;;;;;;;;;;;22.50;57.60;;;;;;5000765;28;20603;-61
2021/07/30 13:41:01;;;;;;;;;;;22.50;57.60;;;;;;5001342;28;19913;-58
2021/07/30 13:43:27;;;;;;;;;;;22.50;57.60;;;;;;5001483;28;19941;-57
2021/07/30 13:45:52;;;;;;;;;;;22.50;57.50;;;;;;5001962;28;19921;-60
2021/07/30 13:48:17;;;;;;;;;;;22.50;57.60;;;;;;5001635;28;19954;-59
2021/07/30 13:50:43;;;;;;;;;;;22.60;57.50;;;;;;5005592;28;19914;-61
2021/07/30 13:53:08;;;;;;;;;;;22.60;57.60;;;;;;5005166;28;19913;-60
2021/07/30 13:55:34;;;;;;;;;;;22.60;57.60;;;;;;5005091;28;20337;-60
2021/07/30 13:57:59;;;;;;;;;;;22.60;57.50;;;;;;5005124;28;19921;-60
2021/07/30 14:00:25;;;;;;;;;;;22.60;57.40;;;;;;5004952;28;19914;-57
2021/07/30 14:02:50;;;;;;;;;;;22.60;57.50;;;;;;5005369;28;20382;-61
2021/07/30 14:05:16;;;;;;;;;;;22.60;57.60;;;;;;5005237;28;19928;-60
2021/07/30 14:07:42;;;;;;;;;;;22.60;57.40;;;;;;5005146;28;20603;-60
2021/07/30 14:10:17;;;;;;;;;;;22.60;57.30;;;;;;5005059;28;20406;-59
2021/07/30 14:12:42;;;;;;;;;;;22.60;57.30;;;;;;5005340;28;19914;-59